Nashville, Tennessee
Traffic Map
Current Weather Conditions
Nashville, Tennessee
Clear
Clear
73°
Feels Like: 73°
Wind Chill: 73° Ceiling: Unl
Heat Index: 73° Visibility: 8mi
Dew Point: 71° Wind: 0mph
Humidity: 93% Direction: ° ()
Pressure: 30.03in Gusts: 0mph
Raw Report DataKBNA 280853Z 00000KT 8SM CLR 23/22 A3003 RMK AO2 SLP163 T02280217 55002
Traffic Incident Summary
Active as of:
Severity:
Category:
InformationThere was an issue retrieving the traffic information for this location. Please try a different location or try again shortly.
Advertisements
Track Severe Weather on mobile